SNAKE2 ETNL-ETNL
Flight info
| Callsign | SNAKE2 |
|---|---|
| Flight time | 1h 1m |
| Altitude | 1111 |
| Route | KUBAB TR401VFRSTAY1/0100 DCT LAG |
| Aircraft | EUFI/M-GIRLTUYZ/LB1 |
Departure
| Time | 2026-04-16 18:06 |
|---|---|
| Airport | Rostock-Laage Airport (ETNL) |
Arrival
| Time | 2026-04-16 19:08 |
|---|---|
| Airport | Rostock-Laage Airport (ETNL) |
| Time | Latitude | Longitude | Altitude | Speed | Heading |
|---|---|---|---|---|---|
| 2026-04-16 17:36 | 53.92263 | 12.26833 | 145 ft | 0 kts | 97° |
| 2026-04-16 17:55 | 53.92232 | 12.26836 | 145 ft | 14 kts | 189° |
| 2026-04-16 17:55 | 53.92195 | 12.26873 | 145 ft | 11 kts | 97° |
| 2026-04-16 17:55 | 53.92180 | 12.27075 | 145 ft | 15 kts | 98° |
| 2026-04-16 17:56 | 53.92171 | 12.27252 | 145 ft | 13 kts | 98° |
| 2026-04-16 17:56 | 53.92158 | 12.27415 | 145 ft | 10 kts | 97° |
| 2026-04-16 17:56 | 53.92131 | 12.27751 | 145 ft | 16 kts | 97° |
| 2026-04-16 17:57 | 53.92115 | 12.27958 | 145 ft | 17 kts | 96° |
| 2026-04-16 17:57 | 53.92099 | 12.28153 | 145 ft | 16 kts | 98° |
| 2026-04-16 17:57 | 53.92083 | 12.28370 | 145 ft | 15 kts | 96° |
| 2026-04-16 17:57 | 53.92071 | 12.28535 | 146 ft | 12 kts | 98° |
| 2026-04-16 17:58 | 53.92060 | 12.28677 | 146 ft | 10 kts | 97° |
| 2026-04-16 17:58 | 53.92046 | 12.28815 | 146 ft | 14 kts | 102° |
| 2026-04-16 17:58 | 53.92030 | 12.28952 | 146 ft | 9 kts | 98° |
| 2026-04-16 17:58 | 53.92022 | 12.29055 | 146 ft | 12 kts | 98° |
| 2026-04-16 17:59 | 53.92006 | 12.29220 | 146 ft | 10 kts | 135° |
| 2026-04-16 17:59 | 53.91951 | 12.29241 | 146 ft | 11 kts | 114° |
| 2026-04-16 17:59 | 53.91940 | 12.29378 | 146 ft | 8 kts | 97° |
| 2026-04-16 17:59 | 53.91931 | 12.29489 | 146 ft | 8 kts | 97° |
| 2026-04-16 18:00 | 53.91922 | 12.29596 | 146 ft | 12 kts | 98° |
| 2026-04-16 18:00 | 53.91916 | 12.29680 | 146 ft | 7 kts | 98° |
| 2026-04-16 18:00 | 53.91918 | 12.29787 | 146 ft | 8 kts | 26° |
| 2026-04-16 18:00 | 53.91966 | 12.29786 | 146 ft | 3 kts | 39° |
| 2026-04-16 18:01 | 53.91961 | 12.29825 | 146 ft | 0 kts | 118° |
| 2026-04-16 18:02 | 53.91947 | 12.29852 | 146 ft | 4 kts | 159° |
| 2026-04-16 18:02 | 53.91912 | 12.29816 | 146 ft | 10 kts | 237° |
| 2026-04-16 18:02 | 53.91868 | 12.29794 | 146 ft | 4 kts | 177° |
| 2026-04-16 18:03 | 53.91842 | 12.29796 | 146 ft | 3 kts | 178° |
| 2026-04-16 18:03 | 53.91829 | 12.29797 | 146 ft | 0 kts | 178° |
| 2026-04-16 18:03 | 53.91822 | 12.29797 | 146 ft | 3 kts | 178° |
| 2026-04-16 18:03 | 53.91816 | 12.29798 | 146 ft | 6 kts | 178° |
| 2026-04-16 18:04 | 53.91792 | 12.29799 | 146 ft | 5 kts | 178° |
| 2026-04-16 18:04 | 53.91786 | 12.29799 | 146 ft | 0 kts | 178° |
| 2026-04-16 18:05 | 53.91703 | 12.29807 | 148 ft | 15 kts | 182° |
| 2026-04-16 18:05 | 53.91661 | 12.29670 | 147 ft | 14 kts | 276° |
| 2026-04-16 18:05 | 53.91664 | 12.29634 | 147 ft | 0 kts | 278° |
| 2026-04-16 18:06 | 53.91669 | 12.29566 | 147 ft | 44 kts | 276° |
| 2026-04-16 18:06 | 53.91798 | 12.27947 | 205 ft | 213 kts | 277° |
| 2026-04-16 18:06 | 53.91999 | 12.24988 | 1399 ft | 302 kts | 277° |
| 2026-04-16 18:07 | 53.92278 | 12.20801 | 3305 ft | 393 kts | 282° |
| 2026-04-16 18:07 | 53.93499 | 12.17217 | 5057 ft | 308 kts | 322° |
| 2026-04-16 18:07 | 53.95692 | 12.16183 | 6194 ft | 354 kts | 5° |
| 2026-04-16 18:07 | 53.97866 | 12.17719 | 7309 ft | 368 kts | 38° |
| 2026-04-16 18:08 | 53.99224 | 12.21015 | 8101 ft | 332 kts | 72° |
| 2026-04-16 18:08 | 53.99381 | 12.25153 | 9373 ft | 381 kts | 102° |
| 2026-04-16 18:08 | 53.98695 | 12.29202 | 10962 ft | 358 kts | 104° |
| 2026-04-16 18:08 | 53.97968 | 12.33419 | 12759 ft | 360 kts | 105° |
| 2026-04-16 18:09 | 53.97325 | 12.37600 | 14493 ft | 383 kts | 105° |
| 2026-04-16 18:09 | 53.96527 | 12.42096 | 16345 ft | 391 kts | 105° |
| 2026-04-16 18:09 | 53.95848 | 12.46601 | 18072 ft | 410 kts | 104° |
| 2026-04-16 18:09 | 53.95019 | 12.51519 | 18612 ft | 421 kts | 106° |
| 2026-04-16 18:10 | 53.94270 | 12.56250 | 18701 ft | 405 kts | 105° |
| 2026-04-16 18:10 | 53.93472 | 12.61031 | 18824 ft | 419 kts | 105° |
| 2026-04-16 18:10 | 53.92759 | 12.65676 | 18858 ft | 408 kts | 103° |
| 2026-04-16 18:10 | 53.91935 | 12.70477 | 18770 ft | 423 kts | 108° |
| 2026-04-16 18:11 | 53.91145 | 12.75152 | 18638 ft | 414 kts | 104° |
| 2026-04-16 18:11 | 53.90377 | 12.79919 | 18563 ft | 422 kts | 105° |
| 2026-04-16 18:11 | 53.89595 | 12.84622 | 18467 ft | 411 kts | 108° |
| 2026-04-16 18:11 | 53.88792 | 12.89256 | 18339 ft | 424 kts | 105° |
| 2026-04-16 18:12 | 53.87950 | 12.93966 | 18409 ft | 414 kts | 105° |
| 2026-04-16 18:12 | 53.86676 | 12.98335 | 18334 ft | 410 kts | 129° |
| 2026-04-16 18:12 | 53.84536 | 13.01464 | 18422 ft | 407 kts | 155° |
| 2026-04-16 18:12 | 53.81840 | 13.02767 | 18625 ft | 417 kts | 181° |
| 2026-04-16 18:13 | 53.79032 | 13.01920 | 18636 ft | 401 kts | 205° |
| 2026-04-16 18:13 | 53.76495 | 13.00270 | 18645 ft | 394 kts | 205° |
| 2026-04-16 18:13 | 53.73970 | 12.98590 | 18651 ft | 378 kts | 204° |
| 2026-04-16 18:13 | 53.71451 | 12.96977 | 18639 ft | 395 kts | 205° |
| 2026-04-16 18:14 | 53.68929 | 12.95301 | 18625 ft | 382 kts | 205° |
| 2026-04-16 18:14 | 53.66420 | 12.93722 | 18610 ft | 389 kts | 204° |
| 2026-04-16 18:14 | 53.63870 | 12.92076 | 18614 ft | 393 kts | 206° |
| 2026-04-16 18:14 | 53.61313 | 12.90658 | 18387 ft | 390 kts | 188° |
| 2026-04-16 18:15 | 53.58566 | 12.91226 | 18297 ft | 413 kts | 165° |
| 2026-04-16 18:15 | 53.56133 | 12.93555 | 18313 ft | 405 kts | 141° |
| 2026-04-16 18:15 | 53.54266 | 12.97237 | 18235 ft | 416 kts | 119° |
| 2026-04-16 18:15 | 53.53330 | 13.01709 | 18283 ft | 409 kts | 97° |
| 2026-04-16 18:16 | 53.53385 | 13.06541 | 18560 ft | 413 kts | 75° |
| 2026-04-16 18:16 | 53.54454 | 13.10925 | 18619 ft | 405 kts | 53° |
| 2026-04-16 18:16 | 53.56380 | 13.14184 | 18595 ft | 394 kts | 29° |
| 2026-04-16 18:16 | 53.58870 | 13.15848 | 18578 ft | 383 kts | 7° |
| 2026-04-16 18:17 | 53.61508 | 13.16531 | 18614 ft | 371 kts | 4° |
| 2026-04-16 18:17 | 53.64132 | 13.17120 | 18615 ft | 383 kts | 4° |
| 2026-04-16 18:17 | 53.66748 | 13.17714 | 18614 ft | 387 kts | 4° |
| 2026-04-16 18:17 | 53.69375 | 13.18341 | 18599 ft | 385 kts | 4° |
| 2026-04-16 18:18 | 53.72002 | 13.18977 | 18585 ft | 383 kts | 5° |
| 2026-04-16 18:18 | 53.73752 | 13.19395 | 18580 ft | 384 kts | 5° |
| 2026-04-16 18:18 | 53.77224 | 13.20230 | 18570 ft | 382 kts | 5° |
| 2026-04-16 18:18 | 53.79878 | 13.20850 | 18593 ft | 379 kts | 5° |
| 2026-04-16 18:19 | 53.82488 | 13.21503 | 18617 ft | 390 kts | 4° |
| 2026-04-16 18:19 | 53.85137 | 13.22175 | 18617 ft | 382 kts | 4° |
| 2026-04-16 18:19 | 53.87779 | 13.22883 | 18584 ft | 378 kts | 7° |
| 2026-04-16 18:19 | 53.89475 | 13.25033 | 18411 ft | 302 kts | 79° |
| 2026-04-16 18:20 | 53.89404 | 13.28907 | 18385 ft | 361 kts | 94° |
| 2026-04-16 18:20 | 53.89115 | 13.33688 | 18545 ft | 455 kts | 97° |
| 2026-04-16 18:20 | 53.88664 | 13.39484 | 18551 ft | 506 kts | 97° |
| 2026-04-16 18:20 | 53.88383 | 13.43142 | 18550 ft | 454 kts | 96° |
| 2026-04-16 18:21 | 53.87966 | 13.49657 | 18560 ft | 428 kts | 96° |
| 2026-04-16 18:21 | 53.87727 | 13.52901 | 18558 ft | 408 kts | 98° |
| 2026-04-16 18:21 | 53.86278 | 13.56081 | 18535 ft | 323 kts | 166° |
| 2026-04-16 18:21 | 53.83913 | 13.56207 | 18550 ft | 410 kts | 187° |
| 2026-04-16 18:22 | 53.80645 | 13.55858 | 18411 ft | 503 kts | 186° |
| 2026-04-16 18:22 | 53.77652 | 13.55710 | 18481 ft | 410 kts | 184° |
| 2026-04-16 18:22 | 53.74861 | 13.55461 | 18503 ft | 394 kts | 186° |
| 2026-04-16 18:22 | 53.72096 | 13.55328 | 18440 ft | 390 kts | 178° |
| 2026-04-16 18:23 | 53.69608 | 13.56797 | 18397 ft | 332 kts | 133° |
| 2026-04-16 18:23 | 53.67611 | 13.59990 | 18444 ft | 476 kts | 141° |
| 2026-04-16 18:23 | 53.65340 | 13.63506 | 18368 ft | 417 kts | 134° |
| 2026-04-16 18:23 | 53.63373 | 13.67072 | 18290 ft | 406 kts | 135° |
| 2026-04-16 18:24 | 53.61421 | 13.67394 | 18144 ft | 258 kts | 232° |
| 2026-04-16 18:24 | 53.59944 | 13.65117 | 18004 ft | 344 kts | 224° |
| 2026-04-16 18:24 | 53.57943 | 13.61494 | 18291 ft | 460 kts | 234° |
| 2026-04-16 18:24 | 53.56031 | 13.57860 | 18197 ft | 401 kts | 230° |
| 2026-04-16 18:25 | 53.54216 | 13.54436 | 18146 ft | 376 kts | 245° |
| 2026-04-16 18:25 | 53.54508 | 13.50857 | 17978 ft | 356 kts | 322° |
| 2026-04-16 18:25 | 53.56636 | 13.48015 | 17976 ft | 386 kts | 319° |
| 2026-04-16 18:25 | 53.58600 | 13.45326 | 18018 ft | 383 kts | 320° |
| 2026-04-16 18:26 | 53.60627 | 13.42699 | 18165 ft | 369 kts | 320° |
| 2026-04-16 18:26 | 53.62617 | 13.40054 | 18263 ft | 370 kts | 320° |
| 2026-04-16 18:26 | 53.64614 | 13.37435 | 18373 ft | 364 kts | 320° |
| 2026-04-16 18:26 | 53.66619 | 13.34776 | 18497 ft | 367 kts | 320° |
| 2026-04-16 18:27 | 53.68625 | 13.32109 | 18589 ft | 366 kts | 320° |
| 2026-04-16 18:27 | 53.70661 | 13.29445 | 18696 ft | 367 kts | 319° |
| 2026-04-16 18:27 | 53.72583 | 13.26739 | 18830 ft | 353 kts | 318° |
| 2026-04-16 18:27 | 53.74461 | 13.24094 | 18803 ft | 352 kts | 318° |
| 2026-04-16 18:28 | 53.76412 | 13.21352 | 18970 ft | 376 kts | 319° |
| 2026-04-16 18:28 | 53.78489 | 13.18580 | 19172 ft | 370 kts | 322° |
| 2026-04-16 18:28 | 53.80558 | 13.16060 | 19263 ft | 379 kts | 322° |
| 2026-04-16 18:28 | 53.82375 | 13.13200 | 19200 ft | 286 kts | 276° |
| 2026-04-16 18:29 | 53.82620 | 13.09044 | 19319 ft | 414 kts | 276° |
| 2026-04-16 18:29 | 53.82414 | 13.04058 | 19104 ft | 459 kts | 252° |
| 2026-04-16 18:29 | 53.82940 | 13.00537 | 19538 ft | 280 kts | 287° |
| 2026-04-16 18:29 | 53.83263 | 12.96293 | 19146 ft | 440 kts | 269° |
| 2026-04-16 18:30 | 53.83212 | 12.91323 | 19186 ft | 371 kts | 278° |
| 2026-04-16 18:30 | 53.83474 | 12.87053 | 19141 ft | 358 kts | 277° |
| 2026-04-16 18:30 | 53.83706 | 12.82714 | 19152 ft | 360 kts | 275° |
| 2026-04-16 18:30 | 53.83225 | 12.78989 | 19096 ft | 307 kts | 215° |
| 2026-04-16 18:31 | 53.81111 | 12.78336 | 18909 ft | 379 kts | 189° |
| 2026-04-16 18:31 | 53.78052 | 12.78058 | 19032 ft | 443 kts | 179° |
| 2026-04-16 18:31 | 53.74971 | 12.78265 | 19084 ft | 444 kts | 184° |
| 2026-04-16 18:31 | 53.72147 | 12.78179 | 19106 ft | 416 kts | 186° |
| 2026-04-16 18:32 | 53.69321 | 12.78271 | 19177 ft | 407 kts | 187° |
| 2026-04-16 18:32 | 53.67446 | 12.76767 | 18890 ft | 257 kts | 273° |
| 2026-04-16 18:32 | 53.67503 | 12.73253 | 18860 ft | 367 kts | 273° |
| 2026-04-16 18:32 | 53.67698 | 12.68620 | 19077 ft | 362 kts | 276° |
| 2026-04-16 18:33 | 53.67901 | 12.64291 | 19050 ft | 375 kts | 276° |
| 2026-04-16 18:33 | 53.68091 | 12.60030 | 19052 ft | 366 kts | 275° |
| 2026-04-16 18:33 | 53.68273 | 12.55747 | 19092 ft | 363 kts | 275° |
| 2026-04-16 18:33 | 53.68450 | 12.51486 | 19117 ft | 353 kts | 275° |
| 2026-04-16 18:34 | 53.68632 | 12.47186 | 19143 ft | 353 kts | 274° |
| 2026-04-16 18:34 | 53.69538 | 12.44380 | 18965 ft | 270 kts | 5° |
| 2026-04-16 18:34 | 53.71848 | 12.44922 | 19033 ft | 413 kts | 5° |
| 2026-04-16 18:34 | 53.74642 | 12.45713 | 18971 ft | 394 kts | 5° |
| 2026-04-16 18:35 | 53.77328 | 12.46458 | 18933 ft | 390 kts | 5° |
| 2026-04-16 18:35 | 53.79968 | 12.47192 | 18892 ft | 383 kts | 5° |
| 2026-04-16 18:35 | 53.82620 | 12.47924 | 18864 ft | 385 kts | 5° |
| 2026-04-16 18:35 | 53.84902 | 12.49615 | 18790 ft | 378 kts | 55° |
| 2026-04-16 18:36 | 53.85312 | 12.54318 | 18857 ft | 433 kts | 94° |
| 2026-04-16 18:36 | 53.85005 | 12.59360 | 18887 ft | 398 kts | 94° |
| 2026-04-16 18:36 | 53.84818 | 12.64339 | 18978 ft | 401 kts | 81° |
| 2026-04-16 18:36 | 53.85145 | 12.68709 | 19693 ft | 365 kts | 80° |
| 2026-04-16 18:37 | 53.85285 | 12.73521 | 20733 ft | 459 kts | 95° |
| 2026-04-16 18:37 | 53.84429 | 12.78912 | 21218 ft | 491 kts | 99° |
| 2026-04-16 18:37 | 53.84046 | 12.84348 | 21176 ft | 443 kts | 95° |
| 2026-04-16 18:37 | 53.83697 | 12.89398 | 21161 ft | 410 kts | 96° |
| 2026-04-16 18:38 | 53.83350 | 12.94097 | 21151 ft | 418 kts | 96° |
| 2026-04-16 18:38 | 53.82981 | 12.99085 | 21107 ft | 426 kts | 96° |
| 2026-04-16 18:38 | 53.82611 | 13.04141 | 21178 ft | 446 kts | 95° |
| 2026-04-16 18:38 | 53.81833 | 13.09180 | 20884 ft | 411 kts | 143° |
| 2026-04-16 18:39 | 53.80123 | 13.09020 | 19761 ft | 224 kts | 285° |
| 2026-04-16 18:39 | 53.80777 | 13.06642 | 18778 ft | 245 kts | 289° |
| 2026-04-16 18:39 | 53.81399 | 13.03536 | 18397 ft | 307 kts | 290° |
| 2026-04-16 18:39 | 53.82153 | 13.00199 | 19211 ft | 320 kts | 292° |
| 2026-04-16 18:40 | 53.82714 | 12.96229 | 20083 ft | 358 kts | 281° |
| 2026-04-16 18:40 | 53.83835 | 12.92288 | 20434 ft | 405 kts | 301° |
| 2026-04-16 18:40 | 53.85358 | 12.87856 | 20736 ft | 452 kts | 300° |
| 2026-04-16 18:40 | 53.86233 | 12.82727 | 21107 ft | 484 kts | 275° |
| 2026-04-16 18:41 | 53.86728 | 12.76587 | 20616 ft | 532 kts | 285° |
| 2026-04-16 18:41 | 53.87187 | 12.71792 | 21180 ft | 309 kts | 268° |
| 2026-04-16 18:41 | 53.86883 | 12.67317 | 21037 ft | 427 kts | 272° |
| 2026-04-16 18:41 | 53.86994 | 12.62546 | 21337 ft | 397 kts | 273° |
| 2026-04-16 18:42 | 53.87067 | 12.58160 | 21215 ft | 346 kts | 273° |
| 2026-04-16 18:42 | 53.87447 | 12.54011 | 20836 ft | 389 kts | 289° |
| 2026-04-16 18:42 | 53.87267 | 12.49984 | 20731 ft | 310 kts | 269° |
| 2026-04-16 18:42 | 53.87434 | 12.45472 | 20955 ft | 409 kts | 276° |
| 2026-04-16 18:43 | 53.87630 | 12.41043 | 20843 ft | 353 kts | 275° |
| 2026-04-16 18:43 | 53.87784 | 12.36888 | 20600 ft | 361 kts | 275° |
| 2026-04-16 18:43 | 53.87364 | 12.32360 | 20723 ft | 426 kts | 250° |
| 2026-04-16 18:43 | 53.85733 | 12.28214 | 20854 ft | 367 kts | 230° |
| 2026-04-16 18:44 | 53.83664 | 12.25313 | 20928 ft | 432 kts | 206° |
| 2026-04-16 18:44 | 53.80955 | 12.24102 | 21134 ft | 406 kts | 191° |
| 2026-04-16 18:44 | 53.78026 | 12.24634 | 21218 ft | 448 kts | 161° |
| 2026-04-16 18:44 | 53.75423 | 12.27369 | 21414 ft | 444 kts | 141° |
| 2026-04-16 18:45 | 53.73528 | 12.31522 | 21287 ft | 432 kts | 114° |
| 2026-04-16 18:45 | 53.72603 | 12.36387 | 21344 ft | 429 kts | 97° |
| 2026-04-16 18:45 | 53.72302 | 12.41437 | 21270 ft | 447 kts | 92° |
| 2026-04-16 18:45 | 53.72090 | 12.46648 | 21194 ft | 447 kts | 93° |
| 2026-04-16 18:46 | 53.71793 | 12.51765 | 21182 ft | 429 kts | 96° |
| 2026-04-16 18:46 | 53.71386 | 12.56813 | 21191 ft | 431 kts | 96° |
| 2026-04-16 18:46 | 53.71018 | 12.61821 | 21208 ft | 439 kts | 95° |
| 2026-04-16 18:46 | 53.70678 | 12.66882 | 21234 ft | 431 kts | 95° |
| 2026-04-16 18:47 | 53.70335 | 12.71975 | 21262 ft | 444 kts | 95° |
| 2026-04-16 18:47 | 53.69998 | 12.77049 | 21294 ft | 421 kts | 95° |
| 2026-04-16 18:47 | 53.69666 | 12.82004 | 21303 ft | 434 kts | 95° |
| 2026-04-16 18:47 | 53.69323 | 12.87163 | 21362 ft | 447 kts | 95° |
| 2026-04-16 18:48 | 53.68987 | 12.92186 | 21370 ft | 410 kts | 95° |
| 2026-04-16 18:48 | 53.68654 | 12.97213 | 21369 ft | 439 kts | 95° |
| 2026-04-16 18:48 | 53.68316 | 13.02273 | 21289 ft | 431 kts | 95° |
| 2026-04-16 18:48 | 53.67975 | 13.07257 | 21205 ft | 423 kts | 95° |
| 2026-04-16 18:49 | 53.67650 | 13.12158 | 21124 ft | 429 kts | 93° |
| 2026-04-16 18:49 | 53.67368 | 13.17351 | 21106 ft | 451 kts | 94° |
| 2026-04-16 18:49 | 53.67088 | 13.22604 | 21089 ft | 442 kts | 94° |
| 2026-04-16 18:49 | 53.66820 | 13.27640 | 21032 ft | 420 kts | 94° |
| 2026-04-16 18:50 | 53.66559 | 13.32485 | 20949 ft | 422 kts | 94° |
| 2026-04-16 18:50 | 53.66289 | 13.37531 | 20909 ft | 431 kts | 94° |
| 2026-04-16 18:50 | 53.66042 | 13.42522 | 20794 ft | 428 kts | 85° |
| 2026-04-16 18:50 | 53.66734 | 13.47578 | 20944 ft | 451 kts | 62° |
| 2026-04-16 18:51 | 53.68347 | 13.51699 | 21048 ft | 409 kts | 41° |
| 2026-04-16 18:51 | 53.70693 | 13.54341 | 21072 ft | 402 kts | 16° |
| 2026-04-16 18:51 | 53.73378 | 13.55088 | 21416 ft | 393 kts | 351° |
| 2026-04-16 18:51 | 53.75942 | 13.53831 | 21562 ft | 388 kts | 327° |
| 2026-04-16 18:52 | 53.77934 | 13.50713 | 21296 ft | 394 kts | 302° |
| 2026-04-16 18:52 | 53.78945 | 13.46595 | 21037 ft | 370 kts | 282° |
| 2026-04-16 18:52 | 53.79212 | 13.42214 | 20936 ft | 381 kts | 276° |
| 2026-04-16 18:52 | 53.79390 | 13.37842 | 20991 ft | 368 kts | 275° |
| 2026-04-16 18:53 | 53.79558 | 13.33451 | 20999 ft | 381 kts | 275° |
| 2026-04-16 18:53 | 53.79726 | 13.29023 | 20977 ft | 373 kts | 275° |
| 2026-04-16 18:53 | 53.79886 | 13.24626 | 21002 ft | 385 kts | 275° |
| 2026-04-16 18:53 | 53.80033 | 13.20149 | 21032 ft | 374 kts | 275° |
| 2026-04-16 18:54 | 53.80167 | 13.15724 | 21064 ft | 376 kts | 274° |
| 2026-04-16 18:54 | 53.80232 | 13.11327 | 21065 ft | 372 kts | 272° |
| 2026-04-16 18:54 | 53.80093 | 13.06800 | 20680 ft | 404 kts | 258° |
| 2026-04-16 18:54 | 53.79082 | 13.02634 | 19890 ft | 377 kts | 239° |
| 2026-04-16 18:55 | 53.77143 | 12.99430 | 19190 ft | 402 kts | 216° |
| 2026-04-16 18:55 | 53.74773 | 12.97560 | 18404 ft | 400 kts | 199° |
| 2026-04-16 18:55 | 53.71881 | 12.97915 | 17421 ft | 402 kts | 168° |
| 2026-04-16 18:55 | 53.69280 | 12.99785 | 16451 ft | 404 kts | 147° |
| 2026-04-16 18:56 | 53.67297 | 13.02957 | 15630 ft | 402 kts | 124° |
| 2026-04-16 18:56 | 53.66227 | 13.07257 | 14974 ft | 402 kts | 99° |
| 2026-04-16 18:56 | 53.66264 | 13.11844 | 14509 ft | 400 kts | 74° |
| 2026-04-16 18:56 | 53.67496 | 13.15649 | 13994 ft | 374 kts | 33° |
| 2026-04-16 18:57 | 53.69893 | 13.17036 | 13607 ft | 373 kts | 357° |
| 2026-04-16 18:57 | 53.72226 | 13.16380 | 13371 ft | 354 kts | 334° |
| 2026-04-16 18:57 | 53.74102 | 13.13944 | 12983 ft | 328 kts | 309° |
| 2026-04-16 18:58 | 53.75221 | 13.06377 | 11546 ft | 345 kts | 273° |
| 2026-04-16 18:58 | 53.75372 | 13.02641 | 10114 ft | 325 kts | 274° |
| 2026-04-16 18:58 | 53.75507 | 12.98792 | 8695 ft | 298 kts | 275° |
| 2026-04-16 18:58 | 53.75654 | 12.95168 | 7385 ft | 319 kts | 273° |
| 2026-04-16 18:59 | 53.75778 | 12.91620 | 6304 ft | 299 kts | 274° |
| 2026-04-16 18:59 | 53.75941 | 12.88068 | 5275 ft | 299 kts | 275° |
| 2026-04-16 18:59 | 53.76091 | 12.84464 | 4247 ft | 317 kts | 273° |
| 2026-04-16 18:59 | 53.76167 | 12.80777 | 3235 ft | 311 kts | 274° |
| 2026-04-16 19:00 | 53.76289 | 12.77213 | 2520 ft | 303 kts | 279° |
| 2026-04-16 19:00 | 53.76652 | 12.73689 | 2080 ft | 294 kts | 285° |
| 2026-04-16 19:00 | 53.77226 | 12.70382 | 1918 ft | 303 kts | 289° |
| 2026-04-16 19:00 | 53.77813 | 12.67011 | 1921 ft | 297 kts | 289° |
| 2026-04-16 19:01 | 53.78377 | 12.63660 | 1959 ft | 298 kts | 288° |
| 2026-04-16 19:01 | 53.79135 | 12.60335 | 1913 ft | 303 kts | 307° |
| 2026-04-16 19:01 | 53.80588 | 12.57928 | 1889 ft | 299 kts | 327° |
| 2026-04-16 19:01 | 53.82251 | 12.55968 | 1840 ft | 319 kts | 323° |
| 2026-04-16 19:02 | 53.83857 | 12.53956 | 1713 ft | 292 kts | 324° |
| 2026-04-16 19:02 | 53.85352 | 12.51700 | 1709 ft | 298 kts | 317° |
| 2026-04-16 19:02 | 53.86896 | 12.49346 | 1726 ft | 298 kts | 320° |
| 2026-04-16 19:02 | 53.88426 | 12.47046 | 1713 ft | 296 kts | 320° |
| 2026-04-16 19:03 | 53.89944 | 12.44763 | 1734 ft | 293 kts | 319° |
| 2026-04-16 19:03 | 53.91015 | 12.42190 | 1642 ft | 260 kts | 270° |
| 2026-04-16 19:03 | 53.90955 | 12.39084 | 1668 ft | 284 kts | 274° |
| 2026-04-16 19:03 | 53.91142 | 12.35547 | 1717 ft | 306 kts | 279° |
| 2026-04-16 19:04 | 53.91418 | 12.31935 | 1684 ft | 299 kts | 280° |
| 2026-04-16 19:04 | 53.91723 | 12.28458 | 1647 ft | 275 kts | 281° |
| 2026-04-16 19:04 | 53.91982 | 12.25060 | 1649 ft | 254 kts | 257° |
| 2026-04-16 19:04 | 53.90907 | 12.24391 | 1486 ft | 170 kts | 141° |
| 2026-04-16 19:05 | 53.90173 | 12.25850 | 1396 ft | 164 kts | 108° |
| 2026-04-16 19:05 | 53.89911 | 12.27749 | 1292 ft | 167 kts | 96° |
| 2026-04-16 19:05 | 53.89718 | 12.29734 | 1182 ft | 174 kts | 95° |
| 2026-04-16 19:05 | 53.89539 | 12.31805 | 1147 ft | 181 kts | 94° |
| 2026-04-16 19:06 | 53.89590 | 12.33874 | 1176 ft | 167 kts | 41° |
| 2026-04-16 19:06 | 53.90537 | 12.34351 | 994 ft | 134 kts | 349° |
| 2026-04-16 19:06 | 53.91350 | 12.33404 | 859 ft | 164 kts | 300° |
| 2026-04-16 19:06 | 53.91522 | 12.31503 | 323 ft | 172 kts | 279° |
| 2026-04-16 19:07 | 53.91671 | 12.29633 | 176 ft | 154 kts | 279° |
| 2026-04-16 19:07 | 53.91764 | 12.28491 | 145 ft | 123 kts | 278° |
| 2026-04-16 19:07 | 53.91859 | 12.27326 | 145 ft | 84 kts | 277° |
| 2026-04-16 19:07 | 53.91934 | 12.26463 | 146 ft | 60 kts | 277° |
| 2026-04-16 19:08 | 53.92004 | 12.26086 | 144 ft | 24 kts | 15° |
| 2026-04-16 19:08 | 53.92122 | 12.26189 | 145 ft | 13 kts | 27° |
| 2026-04-16 19:08 | 53.92197 | 12.26252 | 145 ft | 11 kts | 24° |
| 2026-04-16 19:08 | 53.92240 | 12.26341 | 145 ft | 8 kts | 85° |
| 2026-04-16 19:09 | 53.92229 | 12.26456 | 145 ft | 9 kts | 98° |
| 2026-04-16 19:09 | 53.92221 | 12.26560 | 145 ft | 8 kts | 98° |
| 2026-04-16 19:09 | 53.92213 | 12.26665 | 145 ft | 8 kts | 98° |
| 2026-04-16 19:09 | 53.92229 | 12.26731 | 145 ft | 3 kts | 8° |
| 2026-04-16 19:10 | 53.92264 | 12.26735 | 146 ft | 5 kts | 24° |
| 2026-04-16 19:10 | 53.92268 | 12.26766 | 146 ft | 0 kts | 98° |